Terminal Aerodrome Forecast
Issued by NWS

Home | Current Version | Previous Version | Text Only | Print | Product List | Glossary On
Versions: 1 2 3 4 5 6 7 8 9 10 11 12
996
FTUS43 KICT 061126
TAFCNU
TAF
KCNU 061126Z 0612/0712 VRB06KT P6SM SKC
     FM061400 19007KT P6SM SCT250
     FM061700 19012KT P6SM BKN250
     FM070100 19007KT P6SM SCT250=

USA.gov is the U.S. government's official web portal to all federal, state and local government web resources and services.